CYGLCYMO

Guest
Details From CYGL - LA GRANDE RIVIERE
To CYMO - MOOSONEE
Flight Number -
Tags generated
Created
Modified
Stats Distance 176 nm / 326 km
Max Altitude 18,000 ft / 5,486 m
Waypoints 4
Social Downloads 0
Likes 0
Share VATSIM

Download

Looking for another format? Having issues loading an existing format? Contact us
Advertisement - Login to hide

Notes

Basic altitude profile: - Ascent Rate: 2500ft/min - Ascent Speed: 250kts - Cruise Altitude: 35000ft - Cruise Speed: 420kts - Descent Rate: 1500ft/min - Descent Speed: 250kts Options: - Use NATs: yes - Use PACOTS: yes - Use low airways: yes - Use high airways: yes

Route

CYGL YGL J535 YMO CYMO

ID Type Via Altitude Latitude Longitude Leg Dist Tot Dist Heading (true) Name
O CYGL APT - 0 ft / 0 m 53.62537˚ -77.70412˚ - 0 nm - LA GRANDE RIVIERE
YGL VOR - 100 ft / 30 m 53.62550˚ -77.71622˚ 0 nm 0 nm 271° / 271° LA GRANDE RIVIERE VOR-DME
YMO VOR J535 (AWY-HI) 18,000 ft / 5,486 m 51.29147˚ -80.60728˚ 175 nm 176 nm 218° / 216° MOOSONEE VOR-DME
O CYMO APT - 0 ft / 0 m 51.29210˚ -80.60828˚ 0 nm 176 nm 315° / 315° MOOSONEE

Altitude Profile

Advertisement - Login to hide

Weather


0- 5 10 15 20 25 30 35+ Temperature / ° C

Clouds and Precipitation
Forecast for 2017-12-12 00:00 UTC. Updated 2 hours ago

Ground ~20,000 ft ~40,000 ft Winds

CYGL

Details ICAO CYGL (YGL)
Name LA GRANDE RIVIERE
Region Canada
Timezone America/Montreal (UTC-5.0)
Stats Elevation 639 ft / 195 m (AMSL)
Location 53.625369° -77.704115°
Runways 1
Magnetic Variation 15.325° W

METAR

CYGL 112200Z 17012KT 15SM -SN OVC033 M21/M24 A2985 RMK SC8 SLP135

Decode

TAF

TAF CYGL 111738Z 1118/1218 19010G20KT P6SM SCT040 BKN240 TEMPO 1118/1124 3SM -SHSN BKN020 OVC240 FM120000 19010KT P6SM BKN040 TEMPO 1200/1209 5SM -SN BKN020 FM120900 VRB03KT P6SM BKN040 BECMG 1213/1215 10006KT RMK NXT FCST BY 120000Z

Decode

Departure Runways

ID Width Length Bearing (true) Bearing (mag) Surface Threshold Offset Overrun Length
13 150 ft / 46 m 6,469 ft / 1,972 m 113.03° 128.36° Asphalt 0 ft / 0 m 0 ft / 0 m
31 150 ft / 46 m 6,469 ft / 1,972 m 293.05° 308.38° Asphalt 0 ft / 0 m 0 ft / 0 m

CYMO

Details ICAO CYMO (YMO)
Name MOOSONEE
Region Canada
Timezone America/Toronto (UTC-5.0)
Stats Elevation 30 ft / 9 m (AMSL)
Location 51.292095° -80.608276°
Runways 2
Magnetic Variation 12.114° W

METAR

CYMO 112200Z AUTO 16005KT 9SM -SN OVC044 M19/M21 A2993 RMK SLP136

Decode

TAF

TAF CYMO 111738Z 1118/1206 19006KT P6SM BKN030 TEMPO 1118/1206 5SM -SN BKN020 BECMG 1122/1124 VRB03KT RMK FCST BASED ON AUTO OBS. NXT FCST BY 120000Z

Decode

Destination Runways

ID Width Length Bearing (true) Bearing (mag) Surface Threshold Offset Overrun Length
06 100 ft / 30 m 4,004 ft / 1,220 m 43.12° 55.23° Asphalt 0 ft / 0 m 0 ft / 0 m
14 100 ft / 30 m 3,508 ft / 1,069 m 127.35° 139.46° Dirt 0 ft / 0 m 0 ft / 0 m
24 100 ft / 30 m 4,004 ft / 1,220 m 223.13° 235.24° Asphalt 0 ft / 0 m 0 ft / 0 m
32 100 ft / 30 m 3,508 ft / 1,069 m 307.35° 319.46° Dirt 0 ft / 0 m 0 ft / 0 m